createdAt,value
2018-08-23T00:01:29.390Z,19.60
2018-08-23T00:04:03.403Z,19.50
2018-08-23T00:06:32.440Z,19.50
2018-08-23T00:09:01.447Z,19.40
2018-08-23T00:11:35.077Z,19.40
2018-08-23T00:14:04.228Z,19.30
2018-08-23T00:16:40.070Z,19.20
2018-08-23T00:19:09.051Z,19.10
2018-08-23T00:21:41.406Z,19.00
2018-08-23T00:24:12.072Z,19.00
2018-08-23T00:26:55.811Z,18.90
2018-08-23T00:29:30.118Z,18.80
2018-08-23T00:32:05.380Z,18.80
2018-08-23T00:34:38.564Z,18.70
2018-08-23T00:37:08.233Z,18.70
2018-08-23T00:39:37.541Z,18.60
2018-08-23T00:42:11.203Z,18.60
2018-08-23T00:44:57.039Z,18.50
2018-08-23T00:47:28.210Z,18.40
2018-08-23T00:49:57.242Z,18.30
2018-08-23T00:52:50.201Z,18.40
2018-08-23T00:55:31.550Z,18.40
2018-08-23T00:58:00.512Z,18.40
2018-08-23T01:00:29.521Z,18.30
2018-08-23T01:03:01.356Z,18.20
2018-08-23T01:05:35.902Z,18.20
2018-08-23T01:08:06.390Z,18.10
2018-08-23T01:10:37.872Z,18.10
2018-08-23T01:13:06.878Z,18.00
2018-08-23T01:15:35.867Z,18.00
2018-08-23T01:18:16.129Z,17.90
2018-08-23T01:20:46.206Z,17.90
2018-08-23T01:23:15.228Z,17.90
2018-08-23T01:25:45.454Z,17.80
2018-08-23T01:28:14.413Z,17.80
2018-08-23T01:30:43.880Z,17.80
2018-08-23T01:33:14.495Z,17.80
2018-08-23T01:35:44.767Z,17.80
2018-08-23T01:38:14.475Z,17.70
2018-08-23T01:40:43.520Z,17.70
2018-08-23T01:43:12.523Z,17.70
2018-08-23T01:45:41.471Z,17.70
2018-08-23T01:48:11.261Z,17.70
2018-08-23T01:50:40.445Z,17.70
2018-08-23T01:53:09.443Z,17.70
2018-08-23T01:55:38.987Z,17.70
2018-08-23T01:58:07.964Z,17.70
2018-08-23T02:00:36.960Z,17.80
2018-08-23T02:03:05.951Z,17.70
2018-08-23T02:05:37.719Z,17.70
2018-08-23T02:08:07.515Z,17.70
2018-08-23T02:10:36.521Z,17.60
2018-08-23T02:13:11.026Z,17.60
2018-08-23T02:15:45.492Z,17.60
2018-08-23T02:18:14.465Z,17.60
2018-08-23T02:20:43.474Z,17.60
2018-08-23T02:23:12.444Z,17.60
2018-08-23T02:25:41.406Z,17.60
2018-08-23T02:28:11.531Z,17.60
2018-08-23T02:30:48.169Z,17.60
2018-08-23T02:33:17.460Z,17.60
2018-08-23T02:35:59.385Z,17.60
2018-08-23T02:38:29.420Z,17.50
2018-08-23T02:40:58.973Z,17.50
2018-08-23T02:43:27.987Z,17.40
2018-08-23T02:45:57.168Z,17.40
2018-08-23T02:48:26.116Z,17.30
2018-08-23T02:50:55.089Z,17.30
2018-08-23T02:53:34.028Z,17.20
2018-08-23T02:56:10.871Z,17.20
2018-08-23T02:58:49.861Z,17.20
2018-08-23T03:01:18.881Z,17.10
2018-08-23T03:04:00.599Z,17.10
2018-08-23T03:06:35.628Z,17.10
2018-08-23T03:09:05.834Z,17.00
2018-08-23T03:11:36.479Z,17.00
2018-08-23T03:14:05.986Z,17.00
2018-08-23T03:16:47.772Z,17.00
2018-08-23T03:19:16.815Z,17.00
2018-08-23T03:21:46.517Z,17.10
2018-08-23T03:24:20.041Z,17.10
2018-08-23T03:26:49.145Z,17.10
2018-08-23T03:29:18.071Z,17.10
2018-08-23T03:31:47.044Z,17.20
2018-08-23T03:34:16.171Z,17.10
2018-08-23T03:36:45.134Z,17.10
2018-08-23T03:39:14.084Z,17.10
2018-08-23T03:41:43.155Z,17.00
2018-08-23T03:44:24.593Z,16.90
2018-08-23T03:46:54.902Z,16.90
2018-08-23T03:49:32.275Z,16.90
2018-08-23T03:52:01.671Z,16.90
2018-08-23T03:54:31.468Z,16.90
2018-08-23T03:57:13.278Z,16.90
2018-08-23T03:59:45.721Z,16.90
2018-08-23T04:02:15.754Z,16.90
2018-08-23T04:04:48.568Z,16.80
2018-08-23T04:07:18.066Z,16.80
2018-08-23T04:09:47.013Z,16.90
2018-08-23T04:12:16.575Z,16.90
2018-08-23T04:14:45.628Z,16.90
2018-08-23T04:17:14.617Z,16.90
2018-08-23T04:19:47.433Z,16.80
2018-08-23T04:22:16.817Z,16.80
2018-08-23T04:24:54.339Z,16.90
2018-08-23T04:27:23.305Z,16.90
2018-08-23T04:29:52.292Z,16.90
2018-08-23T04:32:29.034Z,17.00
2018-08-23T04:34:59.537Z,17.00
2018-08-23T04:37:29.332Z,17.10
2018-08-23T04:40:05.190Z,17.10
2018-08-23T04:42:34.870Z,17.10
2018-08-23T04:45:11.669Z,17.10
2018-08-23T04:48:08.555Z,17.20
2018-08-23T04:50:38.934Z,17.20
2018-08-23T04:53:07.927Z,17.20
2018-08-23T04:55:36.993Z,17.30
2018-08-23T04:58:06.117Z,17.40
2018-08-23T05:00:35.108Z,17.50
2018-08-23T05:03:04.116Z,17.70
2018-08-23T05:05:33.071Z,17.80
2018-08-23T05:08:02.117Z,18.00
2018-08-23T05:10:31.082Z,18.10
2018-08-23T05:13:00.089Z,18.10
2018-08-23T05:15:29.068Z,18.30
2018-08-23T05:17:58.009Z,18.40
2018-08-23T05:20:26.994Z,18.40
2018-08-23T05:23:02.110Z,18.40
2018-08-23T05:25:31.082Z,18.50
2018-08-23T05:28:26.267Z,18.70
2018-08-23T05:30:55.412Z,19.00
2018-08-23T05:33:24.419Z,19.30
2018-08-23T05:35:54.078Z,19.60
2018-08-23T05:38:23.050Z,19.70
2018-08-23T05:40:56.179Z,19.70
2018-08-23T05:43:25.133Z,19.90
2018-08-23T05:45:55.529Z,19.90
2018-08-23T05:48:32.099Z,19.80
2018-08-23T05:51:07.562Z,19.90
2018-08-23T05:53:58.425Z,20.20
2018-08-23T05:56:27.445Z,20.30
2018-08-23T05:59:00.661Z,20.40
2018-08-23T06:01:29.824Z,20.50
2018-08-23T06:03:58.773Z,20.80
2018-08-23T06:06:27.971Z,21.00
2018-08-23T06:09:00.425Z,21.40
2018-08-23T06:11:29.685Z,21.90
2018-08-23T06:13:58.624Z,22.10
2018-08-23T06:16:27.612Z,22.10
2018-08-23T06:18:56.560Z,22.30
2018-08-23T06:21:25.514Z,22.60
2018-08-23T06:24:11.276Z,22.60
2018-08-23T06:26:46.591Z,22.90
2018-08-23T06:29:19.606Z,22.60
2018-08-23T06:31:56.754Z,23.20
2018-08-23T06:34:26.597Z,23.60
2018-08-23T06:36:55.963Z,23.30
2018-08-23T06:39:24.912Z,23.30
2018-08-23T06:41:55.132Z,23.80
2018-08-23T06:44:28.987Z,24.20
2018-08-23T06:46:57.976Z,24.40
2018-08-23T06:49:26.931Z,24.00
2018-08-23T06:52:07.833Z,24.20
2018-08-23T06:54:36.814Z,24.50
2018-08-23T06:57:05.773Z,24.20
2018-08-23T06:59:34.755Z,24.30
2018-08-23T07:02:03.729Z,24.20
2018-08-23T07:04:32.781Z,24.30
2018-08-23T07:07:01.779Z,24.40
2018-08-23T07:09:38.565Z,24.70
2018-08-23T07:12:12.999Z,25.00
2018-08-23T07:14:41.973Z,25.20
2018-08-23T07:17:17.994Z,25.80
2018-08-23T07:19:47.816Z,26.00
2018-08-23T07:22:21.850Z,26.10
2018-08-23T07:24:51.873Z,26.20
2018-08-23T07:27:21.697Z,26.20
2018-08-23T07:29:52.939Z,26.00
2018-08-23T07:32:22.952Z,26.40
2018-08-23T07:35:29.614Z,26.70
2018-08-23T07:37:58.870Z,26.70
2018-08-23T07:40:27.933Z,26.70
2018-08-23T07:42:57.161Z,27.20
2018-08-23T07:45:26.091Z,26.80
2018-08-23T07:47:56.042Z,27.10
2018-08-23T07:50:25.046Z,27.10
2018-08-23T07:52:54.777Z,27.00
2018-08-23T07:55:23.667Z,27.30
2018-08-23T07:57:52.640Z,27.40
2018-08-23T08:00:35.819Z,27.70
2018-08-23T08:03:05.005Z,27.70
2018-08-23T08:05:36.739Z,27.80
2018-08-23T08:08:06.519Z,27.90
2018-08-23T08:10:43.639Z,28.10
2018-08-23T08:13:12.714Z,28.20
2018-08-23T08:15:41.692Z,28.20
2018-08-23T08:18:13.742Z,28.50
2018-08-23T08:20:46.718Z,28.50
2018-08-23T08:23:17.439Z,29.10
2018-08-23T08:25:46.490Z,29.00
2018-08-23T08:28:17.142Z,29.10
2018-08-23T08:30:47.079Z,29.20
2018-08-23T08:33:21.133Z,29.40
2018-08-23T08:35:50.771Z,29.80
2018-08-23T08:38:19.749Z,30.00
2018-08-23T08:40:51.478Z,29.90
2018-08-23T08:43:20.471Z,30.00
2018-08-23T08:45:53.795Z,30.20
2018-08-23T08:48:33.401Z,30.70
2018-08-23T08:51:17.399Z,30.20
2018-08-23T08:53:47.010Z,30.50
2018-08-23T08:56:16.979Z,30.50
2018-08-23T08:58:45.978Z,29.90
2018-08-23T09:01:14.931Z,30.50
2018-08-23T09:03:44.433Z,30.90
2018-08-23T09:06:18.192Z,30.60
2018-08-23T09:08:47.157Z,30.60
2018-08-23T09:11:16.327Z,30.70
2018-08-23T09:13:46.366Z,30.70
2018-08-23T09:16:15.398Z,31.00
2018-08-23T09:18:53.841Z,30.90
2018-08-23T09:21:22.785Z,30.80
2018-08-23T09:23:52.189Z,30.90
2018-08-23T09:26:25.088Z,31.30
2018-08-23T09:28:54.059Z,31.40
2018-08-23T09:31:23.032Z,30.80
2018-08-23T09:33:52.011Z,31.20
2018-08-23T09:36:20.960Z,31.20
2018-08-23T09:38:49.909Z,31.50
2018-08-23T09:41:18.994Z,32.00
2018-08-23T09:43:47.981Z,32.00
2018-08-23T09:46:17.015Z,31.50
2018-08-23T09:48:45.988Z,31.90
2018-08-23T09:51:20.315Z,32.30
2018-08-23T09:53:49.272Z,32.70
2018-08-23T09:56:23.538Z,32.80
2018-08-23T09:58:52.629Z,33.10
2018-08-23T10:01:26.933Z,32.90
2018-08-23T10:04:01.286Z,32.10
2018-08-23T10:06:35.609Z,32.20
2018-08-23T10:09:16.563Z,32.50
2018-08-23T10:11:51.255Z,32.70
2018-08-23T10:14:25.707Z,32.80
2018-08-23T10:17:00.036Z,32.60
2018-08-23T10:19:34.984Z,32.90
2018-08-23T10:22:09.388Z,33.10
2018-08-23T10:24:38.386Z,33.00
2018-08-23T10:27:07.443Z,32.70
2018-08-23T10:29:36.492Z,33.20
2018-08-23T10:32:05.513Z,33.60
2018-08-23T10:34:34.516Z,33.80
2018-08-23T10:37:03.680Z,34.00
2018-08-23T10:39:32.647Z,33.80
2018-08-23T10:42:01.667Z,34.20
2018-08-23T10:44:30.680Z,34.70
2018-08-23T10:46:59.718Z,33.90
2018-08-23T10:49:28.699Z,32.90
2018-08-23T10:51:58.674Z,33.50
2018-08-23T10:54:28.063Z,33.90
2018-08-23T10:56:57.909Z,34.00
2018-08-23T10:59:26.885Z,33.70
2018-08-23T11:01:55.955Z,34.30
2018-08-23T11:04:24.925Z,34.20
2018-08-23T11:06:58.055Z,34.40
2018-08-23T11:09:32.523Z,34.60
2018-08-23T11:12:01.600Z,34.30
2018-08-23T11:14:46.157Z,34.50
2018-08-23T11:17:20.557Z,34.70
2018-08-23T11:19:54.996Z,35.00
2018-08-23T11:22:28.266Z,34.90
2018-08-23T11:24:57.245Z,35.20
2018-08-23T11:27:26.224Z,34.70
2018-08-23T11:29:55.234Z,34.50
2018-08-23T11:32:24.398Z,33.90
2018-08-23T11:34:53.435Z,34.00
2018-08-23T11:37:22.509Z,34.40
2018-08-23T11:39:52.496Z,35.10
2018-08-23T11:42:21.457Z,34.70
2018-08-23T11:44:50.501Z,36.30
2018-08-23T11:47:19.527Z,35.20
2018-08-23T11:49:48.486Z,34.60
2018-08-23T11:52:17.491Z,34.00
2018-08-23T11:54:46.500Z,34.00
2018-08-23T11:57:15.472Z,33.90
2018-08-23T11:59:44.539Z,33.80
2018-08-23T12:02:13.575Z,34.50
2018-08-23T12:04:42.571Z,33.80
2018-08-23T12:07:11.607Z,34.10
2018-08-23T12:09:40.620Z,33.80
2018-08-23T12:12:09.989Z,33.00
2018-08-23T12:14:38.953Z,33.00
2018-08-23T12:17:07.920Z,32.60
2018-08-23T12:19:36.895Z,32.40
2018-08-23T12:22:06.032Z,33.20
2018-08-23T12:24:35.042Z,33.30
2018-08-23T12:27:04.011Z,33.70
2018-08-23T12:29:33.029Z,33.20
2018-08-23T12:32:02.844Z,32.60
2018-08-23T12:34:33.598Z,32.20
2018-08-23T12:37:07.993Z,31.80
2018-08-23T12:39:42.190Z,32.20
2018-08-23T12:42:16.556Z,32.50
2018-08-23T12:44:50.785Z,33.80
2018-08-23T12:47:19.763Z,33.60
2018-08-23T12:49:49.769Z,33.80
2018-08-23T12:52:20.179Z,33.70
2018-08-23T12:54:49.141Z,33.80
2018-08-23T12:57:18.119Z,33.00
2018-08-23T12:59:47.094Z,33.10
2018-08-23T13:02:16.269Z,33.40
2018-08-23T13:04:45.303Z,33.70
2018-08-23T13:07:14.391Z,34.00
2018-08-23T13:09:43.660Z,33.60
2018-08-23T13:12:12.624Z,33.80
2018-08-23T13:14:41.606Z,33.70
2018-08-23T13:17:10.733Z,33.70
2018-08-23T13:19:39.816Z,35.30
2018-08-23T13:22:08.772Z,35.20
2018-08-23T13:24:43.083Z,34.30
2018-08-23T13:27:12.060Z,34.70
2018-08-23T13:29:41.016Z,34.70
2018-08-23T13:32:10.057Z,34.00
2018-08-23T13:34:39.036Z,34.00
2018-08-23T13:37:08.164Z,33.50
2018-08-23T13:39:37.245Z,32.90
2018-08-23T13:42:06.548Z,33.00
2018-08-23T13:44:35.512Z,32.80
2018-08-23T13:47:04.981Z,32.80
2018-08-23T13:49:34.627Z,33.20
2018-08-23T13:52:03.829Z,33.20
2018-08-23T13:54:32.936Z,33.50
2018-08-23T13:57:01.974Z,34.50
2018-08-23T13:59:31.103Z,33.70
2018-08-23T14:02:00.234Z,34.00
2018-08-23T14:04:29.390Z,33.50
2018-08-23T14:06:58.570Z,33.30
2018-08-23T14:09:27.809Z,33.30
2018-08-23T14:11:56.970Z,33.10
2018-08-23T14:14:26.832Z,32.40
2018-08-23T14:16:56.459Z,32.50
2018-08-23T14:19:27.238Z,32.70
2018-08-23T14:21:56.851Z,33.00
2018-08-23T14:24:26.898Z,33.10
2018-08-23T14:26:57.321Z,33.20
2018-08-23T14:29:27.861Z,33.30
2018-08-23T14:31:57.617Z,33.00
2018-08-23T14:34:27.246Z,32.90
2018-08-23T14:36:57.618Z,32.90
2018-08-23T14:39:26.793Z,32.30
2018-08-23T14:41:56.286Z,32.60
2018-08-23T14:44:25.585Z,32.70
2018-08-23T14:47:00.096Z,32.60
2018-08-23T14:49:35.469Z,32.90
2018-08-23T14:52:06.943Z,32.90
2018-08-23T14:54:41.958Z,33.20
2018-08-23T14:57:16.335Z,33.10
2018-08-23T14:59:45.696Z,33.70
2018-08-23T15:02:14.674Z,32.60
2018-08-23T15:04:47.175Z,32.10
2018-08-23T15:07:16.906Z,32.20
2018-08-23T15:09:46.321Z,32.30
2018-08-23T15:12:15.454Z,32.80
2018-08-23T15:14:44.545Z,32.40
2018-08-23T15:17:13.951Z,32.60
2018-08-23T15:19:43.678Z,32.30
2018-08-23T15:22:12.701Z,31.90
2018-08-23T15:24:41.692Z,32.00
2018-08-23T15:27:11.037Z,32.10
2018-08-23T15:29:40.019Z,32.60
2018-08-23T15:32:09.044Z,32.30
2018-08-23T15:34:38.059Z,31.60
2018-08-23T15:37:07.526Z,31.30
2018-08-23T15:39:39.897Z,30.90
2018-08-23T15:42:09.589Z,30.50
2018-08-23T15:44:38.549Z,30.60
2018-08-23T15:47:07.598Z,30.60
2018-08-23T15:49:36.579Z,30.40
2018-08-23T15:52:05.584Z,30.50
2018-08-23T15:54:34.628Z,30.40
2018-08-23T15:57:03.779Z,30.10
2018-08-23T15:59:32.716Z,29.90
2018-08-23T16:02:01.864Z,30.20
2018-08-23T16:04:30.830Z,30.30
2018-08-23T16:06:59.849Z,30.20
2018-08-23T16:09:28.931Z,30.00
2018-08-23T16:11:58.949Z,29.80
2018-08-23T16:14:27.988Z,29.70
2018-08-23T16:17:02.297Z,29.60
2018-08-23T16:19:36.668Z,29.50
2018-08-23T16:22:05.853Z,29.50
2018-08-23T16:24:35.075Z,29.50
2018-08-23T16:27:04.929Z,29.40
2018-08-23T16:29:34.035Z,29.30
2018-08-23T16:32:03.336Z,29.40
2018-08-23T16:34:32.314Z,29.20
2018-08-23T16:37:01.294Z,29.10
2018-08-23T16:39:30.289Z,29.00
2018-08-23T16:41:59.354Z,29.00
2018-08-23T16:44:28.352Z,28.90
2018-08-23T16:46:57.474Z,28.90
2018-08-23T16:49:27.388Z,28.80
2018-08-23T16:51:56.524Z,28.70
2018-08-23T16:54:32.184Z,28.70
2018-08-23T16:57:01.307Z,28.60
2018-08-23T16:59:30.281Z,28.60
2018-08-23T17:01:59.320Z,28.50
2018-08-23T17:04:34.364Z,28.50
2018-08-23T17:07:03.390Z,28.50
2018-08-23T17:09:32.359Z,28.40
2018-08-23T17:12:01.472Z,28.30
2018-08-23T17:14:30.420Z,28.20
2018-08-23T17:17:05.261Z,28.10
2018-08-23T17:19:34.287Z,28.10
2018-08-23T17:22:03.231Z,28.00
2018-08-23T17:24:32.334Z,27.90
2018-08-23T17:27:01.296Z,27.90
2018-08-23T17:29:30.823Z,27.80
2018-08-23T17:32:00.057Z,27.70
2018-08-23T17:34:29.078Z,27.60
2018-08-23T17:36:58.126Z,27.60
2018-08-23T17:39:27.222Z,27.50
2018-08-23T17:41:56.218Z,27.40
2018-08-23T17:44:25.249Z,27.30
2018-08-23T17:46:54.261Z,27.30
2018-08-23T17:49:23.259Z,27.20
2018-08-23T17:51:52.220Z,27.10
2018-08-23T17:54:21.296Z,27.00
2018-08-23T17:56:50.380Z,26.90
2018-08-23T17:59:19.323Z,26.90
2018-08-23T18:01:48.351Z,26.80
2018-08-23T18:04:17.424Z,26.70
2018-08-23T18:06:46.725Z,26.70
2018-08-23T18:09:15.837Z,26.60
2018-08-23T18:11:45.264Z,26.50
2018-08-23T18:14:14.416Z,26.40
2018-08-23T18:16:48.807Z,26.20
2018-08-23T18:19:18.307Z,26.10
2018-08-23T18:21:47.275Z,26.00
2018-08-23T18:24:16.258Z,25.90
2018-08-23T18:26:45.254Z,25.70
2018-08-23T18:29:14.379Z,25.60
2018-08-23T18:31:43.724Z,25.50
2018-08-23T18:34:12.814Z,25.40
2018-08-23T18:36:41.904Z,25.30
2018-08-23T18:39:11.374Z,25.20
2018-08-23T18:41:40.433Z,25.10
2018-08-23T18:44:09.451Z,25.00
2018-08-23T18:46:38.434Z,24.90
2018-08-23T18:49:07.469Z,24.90
2018-08-23T18:51:36.499Z,24.80
2018-08-23T18:54:05.644Z,24.70
2018-08-23T18:56:34.643Z,24.60
2018-08-23T18:59:03.928Z,24.60
2018-08-23T19:01:32.904Z,24.50
2018-08-23T19:04:01.941Z,24.40
2018-08-23T19:06:36.380Z,24.40
2018-08-23T19:09:13.300Z,24.40
2018-08-23T19:11:43.446Z,24.30
2018-08-23T19:14:12.589Z,24.30
2018-08-23T19:16:47.109Z,24.20
2018-08-23T19:19:16.281Z,24.20
2018-08-23T19:21:45.589Z,24.10
2018-08-23T19:24:14.862Z,24.00
2018-08-23T19:26:43.870Z,24.00
2018-08-23T19:29:12.889Z,24.00
2018-08-23T19:31:41.879Z,23.90
2018-08-23T19:34:10.922Z,23.90
2018-08-23T19:36:39.949Z,23.90
2018-08-23T19:39:10.480Z,23.90
2018-08-23T19:41:39.685Z,23.80
2018-08-23T19:44:08.899Z,23.70
2018-08-23T19:46:43.123Z,23.70
2018-08-23T19:49:17.548Z,23.60
2018-08-23T19:51:46.775Z,23.50
2018-08-23T19:54:15.792Z,23.40
2018-08-23T19:56:44.953Z,23.40
2018-08-23T19:59:14.081Z,23.40
2018-08-23T20:01:43.694Z,23.30
2018-08-23T20:04:12.727Z,23.20
2018-08-23T20:06:41.711Z,23.10
2018-08-23T20:09:10.775Z,23.10
2018-08-23T20:11:39.909Z,23.00
2018-08-23T20:14:09.000Z,22.90
2018-08-23T20:16:38.140Z,22.80
2018-08-23T20:19:07.725Z,22.90
2018-08-23T20:21:36.787Z,22.80
2018-08-23T20:24:06.104Z,22.70
2018-08-23T20:26:35.158Z,22.70
2018-08-23T20:29:05.573Z,22.60
2018-08-23T20:31:35.334Z,22.60
2018-08-23T20:34:04.459Z,22.50
2018-08-23T20:36:33.423Z,22.40
2018-08-23T20:39:03.595Z,22.40
2018-08-23T20:41:32.535Z,22.30
2018-08-23T20:44:01.491Z,22.20
2018-08-23T20:46:30.582Z,22.10
2018-08-23T20:48:59.616Z,22.10
2018-08-23T20:51:28.656Z,22.00
2018-08-23T20:53:57.656Z,22.00
2018-08-23T20:56:27.240Z,22.00
2018-08-23T20:58:56.283Z,21.90
2018-08-23T21:01:25.454Z,21.90
2018-08-23T21:03:54.494Z,21.80
2018-08-23T21:06:23.473Z,21.70
2018-08-23T21:08:52.480Z,21.70
2018-08-23T21:11:21.442Z,21.60
2018-08-23T21:13:50.480Z,21.60
2018-08-23T21:16:20.379Z,21.60
2018-08-23T21:18:49.439Z,21.60
2018-08-23T21:21:18.422Z,21.50
2018-08-23T21:23:47.408Z,21.50
2018-08-23T21:26:16.435Z,21.40
2018-08-23T21:28:45.459Z,21.40
2018-08-23T21:31:15.642Z,21.40
2018-08-23T21:33:44.638Z,21.30
2018-08-23T21:36:14.025Z,21.30
2018-08-23T21:38:42.999Z,21.30
2018-08-23T21:41:11.990Z,21.30
2018-08-23T21:43:41.000Z,21.30
2018-08-23T21:46:10.086Z,21.20
2018-08-23T21:48:39.047Z,21.20
2018-08-23T21:51:08.003Z,21.10
2018-08-23T21:53:37.007Z,21.10
2018-08-23T21:56:06.164Z,21.10
2018-08-23T21:58:35.135Z,21.10
2018-08-23T22:01:06.684Z,21.10
2018-08-23T22:03:36.188Z,21.00
2018-08-23T22:06:05.333Z,21.00
2018-08-23T22:08:34.968Z,20.90
2018-08-23T22:11:04.018Z,20.90
2018-08-23T22:13:33.643Z,20.90
2018-08-23T22:16:02.628Z,20.90
2018-08-23T22:18:31.640Z,20.90
2018-08-23T22:21:00.889Z,20.90
2018-08-23T22:23:29.939Z,20.80
2018-08-23T22:25:58.895Z,20.70
2018-08-23T22:28:28.603Z,20.70
2018-08-23T22:30:57.644Z,20.60
2018-08-23T22:33:26.627Z,20.70
2018-08-23T22:35:55.708Z,20.70
2018-08-23T22:38:24.667Z,20.60
2018-08-23T22:40:53.658Z,20.60
2018-08-23T22:43:22.698Z,20.60
2018-08-23T22:45:51.742Z,20.60
2018-08-23T22:48:20.821Z,20.50
2018-08-23T22:50:49.884Z,20.40
2018-08-23T22:53:19.034Z,20.40
2018-08-23T22:55:48.095Z,20.30
2018-08-23T22:58:17.127Z,20.20
2018-08-23T23:00:46.123Z,20.20
2018-08-23T23:03:20.545Z,20.10
2018-08-23T23:05:49.630Z,20.00
2018-08-23T23:08:18.810Z,20.00
2018-08-23T23:10:47.839Z,20.00
2018-08-23T23:13:16.934Z,20.00
2018-08-23T23:15:46.457Z,19.90
2018-08-23T23:18:15.526Z,19.90
2018-08-23T23:20:44.568Z,19.90
2018-08-23T23:23:13.657Z,19.90
2018-08-23T23:25:42.703Z,19.80
2018-08-23T23:28:12.221Z,19.80
2018-08-23T23:30:41.767Z,19.80
2018-08-23T23:33:10.723Z,19.80
2018-08-23T23:35:39.680Z,19.80
2018-08-23T23:38:08.696Z,19.70
2018-08-23T23:40:38.054Z,19.70
2018-08-23T23:43:07.088Z,19.60
2018-08-23T23:45:36.165Z,19.70
2018-08-23T23:48:05.210Z,19.60
2018-08-23T23:50:34.193Z,19.60
2018-08-23T23:53:03.264Z,19.60
2018-08-23T23:55:32.277Z,19.60
2018-08-23T23:58:01.292Z,19.50
